createdAt,value
2022-07-29T00:02:10.800Z,82.11
2022-07-29T00:04:38.860Z,81.33
2022-07-29T00:07:05.344Z,81.10
2022-07-29T00:09:32.397Z,83.31
2022-07-29T00:12:01.243Z,83.13
2022-07-29T00:14:29.166Z,83.39
2022-07-29T00:16:56.455Z,83.63
2022-07-29T00:19:23.340Z,83.40
2022-07-29T00:21:49.867Z,84.02
2022-07-29T00:24:16.555Z,83.69
2022-07-29T00:26:43.479Z,84.03
2022-07-29T00:31:56.984Z,86.23
2022-07-29T00:34:41.781Z,86.45
2022-07-29T00:37:08.446Z,85.74
2022-07-29T00:39:34.836Z,85.01
2022-07-29T00:42:04.462Z,84.47
2022-07-29T00:44:31.145Z,85.67
2022-07-29T00:46:57.602Z,87.30
2022-07-29T00:49:24.581Z,87.33
2022-07-29T00:51:51.310Z,86.44
2022-07-29T00:54:18.635Z,85.55
2022-07-29T00:56:45.731Z,85.67
2022-07-29T00:59:12.100Z,85.28
2022-07-29T01:01:38.533Z,84.70
2022-07-29T01:04:07.605Z,84.74
2022-07-29T01:06:35.608Z,83.56
2022-07-29T01:09:02.402Z,84.40
2022-07-29T01:11:29.291Z,84.99
2022-07-29T01:13:56.451Z,85.25
2022-07-29T01:16:31.739Z,85.89
2022-07-29T01:19:07.850Z,86.83
2022-07-29T01:21:39.899Z,87.00
2022-07-29T01:24:35.383Z,87.59
2022-07-29T01:27:19.109Z,87.50
2022-07-29T01:29:54.980Z,88.37
2022-07-29T01:32:29.013Z,88.60
2022-07-29T01:35:04.939Z,88.65
2022-07-29T01:37:43.956Z,88.53
2022-07-29T01:40:21.125Z,88.86
2022-07-29T01:42:52.480Z,89.26
2022-07-29T01:45:36.169Z,89.52
2022-07-29T01:48:17.824Z,88.86
2022-07-29T01:50:57.262Z,88.84
2022-07-29T01:53:38.088Z,88.70
2022-07-29T01:56:07.334Z,88.94
2022-07-29T01:58:35.907Z,88.74
2022-07-29T02:01:04.184Z,89.06
2022-07-29T02:03:33.369Z,88.52
2022-07-29T02:06:02.972Z,88.23
2022-07-29T02:08:31.063Z,87.91
2022-07-29T02:10:59.399Z,88.20
2022-07-29T02:13:29.008Z,88.47
2022-07-29T02:15:58.112Z,88.43
2022-07-29T02:18:26.205Z,87.83
2022-07-29T02:20:57.732Z,87.36
2022-07-29T02:23:25.830Z,87.62
2022-07-29T02:25:56.172Z,87.98
2022-07-29T02:28:25.216Z,87.68
2022-07-29T02:30:53.192Z,86.52
2022-07-29T02:33:21.383Z,86.73
2022-07-29T02:35:49.469Z,86.33
2022-07-29T02:38:36.402Z,85.73
2022-07-29T02:41:13.187Z,85.78
2022-07-29T02:43:41.426Z,85.73
2022-07-29T02:46:28.282Z,85.82
2022-07-29T02:49:23.439Z,85.31
2022-07-29T02:52:03.036Z,85.85
2022-07-29T02:54:39.165Z,86.35
2022-07-29T02:57:16.153Z,86.32
2022-07-29T02:59:46.083Z,86.29
2022-07-29T03:02:15.880Z,86.84
2022-07-29T03:04:44.827Z,86.15
2022-07-29T03:07:16.377Z,86.40
2022-07-29T03:09:43.877Z,86.67
2022-07-29T03:12:11.937Z,86.62
2022-07-29T03:14:39.267Z,86.24
2022-07-29T03:17:06.738Z,86.69
2022-07-29T03:19:33.352Z,87.37
2022-07-29T03:22:00.987Z,87.43
2022-07-29T03:24:29.470Z,87.23
2022-07-29T03:26:57.604Z,86.91
2022-07-29T03:29:24.638Z,86.98
2022-07-29T03:31:51.161Z,86.95
2022-07-29T03:34:18.141Z,87.12
2022-07-29T03:36:45.227Z,86.92
2022-07-29T03:39:15.528Z,86.80
2022-07-29T03:41:45.764Z,86.81
2022-07-29T03:44:14.777Z,87.37
2022-07-29T03:46:44.642Z,86.94
2022-07-29T03:49:13.705Z,86.69
2022-07-29T03:51:40.351Z,86.61
2022-07-29T03:54:10.111Z,86.43
2022-07-29T03:56:40.701Z,86.69
2022-07-29T03:59:08.113Z,86.10
2022-07-29T04:01:35.600Z,87.96
2022-07-29T04:04:02.511Z,88.38
2022-07-29T04:06:29.363Z,89.31
2022-07-29T04:08:55.751Z,89.59
2022-07-29T04:11:22.176Z,89.29
2022-07-29T04:13:49.128Z,88.87
2022-07-29T04:16:15.541Z,87.96
2022-07-29T04:18:41.960Z,87.69
2022-07-29T04:21:08.375Z,88.54
2022-07-29T04:23:34.785Z,88.51
2022-07-29T04:26:02.012Z,89.26
2022-07-29T04:28:28.800Z,88.48
2022-07-29T04:30:55.596Z,88.19
2022-07-29T04:33:22.022Z,87.53
2022-07-29T04:35:52.678Z,86.58
2022-07-29T04:38:22.653Z,86.46
2022-07-29T04:40:49.604Z,86.28
2022-07-29T04:43:17.695Z,86.45
2022-07-29T04:45:49.999Z,86.60
2022-07-29T04:48:16.416Z,87.00
2022-07-29T04:50:42.999Z,85.94
2022-07-29T04:53:10.029Z,84.67
2022-07-29T04:55:37.357Z,84.46
2022-07-29T04:58:05.569Z,84.69
2022-07-29T05:00:33.483Z,84.71
2022-07-29T05:03:00.290Z,84.25
2022-07-29T05:05:26.778Z,85.47
2022-07-29T05:07:53.647Z,85.18
2022-07-29T05:10:20.027Z,85.18
2022-07-29T05:12:46.416Z,84.98
2022-07-29T05:15:13.262Z,84.64
2022-07-29T05:17:40.059Z,83.90
2022-07-29T05:20:07.966Z,83.95
2022-07-29T05:22:34.322Z,83.75
2022-07-29T05:25:05.536Z,82.81
2022-07-29T05:27:34.957Z,83.31
2022-07-29T05:30:01.379Z,81.89
2022-07-29T05:32:28.262Z,81.56
2022-07-29T05:34:54.621Z,83.37
2022-07-29T05:37:21.029Z,82.49
2022-07-29T05:39:49.042Z,81.25
2022-07-29T05:42:17.664Z,80.82
2022-07-29T05:44:44.066Z,80.53
2022-07-29T05:47:10.472Z,80.04
2022-07-29T05:49:37.301Z,80.86
2022-07-29T05:52:04.599Z,79.12
2022-07-29T05:54:31.547Z,78.14
2022-07-29T05:56:58.284Z,78.55
2022-07-29T05:59:29.884Z,78.93
2022-07-29T06:01:57.943Z,78.75
2022-07-29T06:04:25.020Z,79.41
2022-07-29T06:06:51.809Z,79.74
2022-07-29T06:09:18.272Z,79.73
2022-07-29T06:11:44.652Z,78.89
2022-07-29T06:14:11.492Z,78.79
2022-07-29T06:16:38.331Z,80.71
2022-07-29T06:19:05.312Z,79.83
2022-07-29T06:21:31.710Z,78.99
2022-07-29T06:23:58.589Z,79.27
2022-07-29T06:26:30.410Z,78.15
2022-07-29T06:28:58.027Z,78.12
2022-07-29T06:31:24.915Z,79.09
2022-07-29T06:33:51.453Z,79.82
2022-07-29T06:36:23.533Z,78.80
2022-07-29T06:38:52.221Z,78.48
2022-07-29T06:41:19.159Z,76.58
2022-07-29T06:43:52.104Z,76.38
2022-07-29T06:46:22.876Z,75.10
2022-07-29T06:48:50.846Z,73.57
2022-07-29T06:51:22.946Z,70.65
2022-07-29T06:53:59.794Z,72.32
2022-07-29T06:56:30.914Z,71.15
2022-07-29T06:58:57.623Z,74.18
2022-07-29T07:01:24.071Z,71.98
2022-07-29T07:03:50.580Z,74.98
2022-07-29T07:06:17.615Z,71.47
2022-07-29T07:08:44.005Z,73.28
2022-07-29T07:11:10.784Z,71.23
2022-07-29T07:13:37.232Z,70.23
2022-07-29T07:16:05.066Z,69.99
2022-07-29T07:18:31.977Z,68.45
2022-07-29T07:20:59.556Z,69.98
2022-07-29T07:23:25.944Z,66.75
2022-07-29T07:25:52.401Z,66.00
2022-07-29T07:28:19.339Z,65.44
2022-07-29T07:30:51.824Z,65.56
2022-07-29T07:33:18.276Z,63.52
2022-07-29T07:35:45.521Z,62.55
2022-07-29T07:38:12.120Z,66.59
2022-07-29T07:40:39.002Z,70.96
2022-07-29T07:43:06.069Z,70.65
2022-07-29T07:45:33.810Z,70.01
2022-07-29T07:48:00.411Z,72.13
2022-07-29T07:50:27.327Z,71.41
2022-07-29T07:52:58.408Z,67.47
2022-07-29T07:55:25.137Z,68.31
2022-07-29T07:57:52.129Z,69.15
2022-07-29T08:00:18.628Z,69.73
2022-07-29T08:02:46.071Z,69.00
2022-07-29T08:05:18.120Z,71.68
2022-07-29T08:07:47.918Z,71.58
2022-07-29T08:10:15.515Z,68.35
2022-07-29T08:12:42.786Z,69.70
2022-07-29T08:15:09.709Z,69.47
2022-07-29T08:17:36.116Z,67.61
2022-07-29T08:20:03.128Z,66.54
2022-07-29T08:22:29.627Z,65.93
2022-07-29T08:24:57.016Z,67.89
2022-07-29T08:27:42.838Z,65.77
2022-07-29T08:30:11.023Z,65.07
2022-07-29T08:32:53.317Z,69.91
2022-07-29T08:35:21.816Z,69.43
2022-07-29T08:37:49.124Z,69.00
2022-07-29T08:40:15.810Z,68.50
2022-07-29T08:42:42.799Z,62.76
2022-07-29T08:45:10.310Z,59.98
2022-07-29T08:47:43.177Z,62.77
2022-07-29T08:50:11.105Z,53.18
2022-07-29T08:52:39.904Z,52.85
2022-07-29T08:55:08.376Z,51.59
2022-07-29T08:57:37.258Z,51.66
2022-07-29T09:00:11.344Z,48.24
2022-07-29T09:02:46.734Z,51.76
2022-07-29T09:05:14.272Z,59.59
2022-07-29T09:07:43.995Z,57.96
2022-07-29T09:10:11.506Z,50.67
2022-07-29T09:12:38.366Z,47.75
2022-07-29T09:15:05.411Z,51.17
2022-07-29T09:17:47.162Z,52.47
2022-07-29T09:20:19.238Z,48.60
2022-07-29T09:22:50.333Z,54.96
2022-07-29T09:25:41.448Z,51.89
2022-07-29T09:28:12.954Z,55.00
2022-07-29T09:30:58.027Z,55.23
2022-07-29T09:33:40.092Z,54.56
2022-07-29T09:36:09.071Z,58.71
2022-07-29T09:38:37.518Z,55.59
2022-07-29T09:41:06.948Z,46.62
2022-07-29T09:43:35.179Z,46.31
2022-07-29T09:46:14.729Z,50.08
2022-07-29T09:48:42.296Z,53.41
2022-07-29T09:51:28.307Z,54.25
2022-07-29T09:54:27.797Z,55.20
2022-07-29T09:56:55.547Z,55.12
2022-07-29T09:59:25.206Z,53.23
2022-07-29T10:01:51.629Z,50.69
2022-07-29T10:04:18.879Z,54.12
2022-07-29T10:07:05.479Z,47.04
2022-07-29T10:09:33.319Z,48.41
2022-07-29T10:12:07.480Z,49.98
2022-07-29T10:14:36.710Z,51.30
2022-07-29T10:17:04.836Z,51.41
2022-07-29T10:19:32.899Z,49.09
2022-07-29T10:22:00.959Z,47.30
2022-07-29T10:24:29.123Z,49.34
2022-07-29T10:26:58.164Z,48.94
2022-07-29T10:29:26.036Z,45.33
2022-07-29T10:32:11.149Z,47.08
2022-07-29T10:34:55.671Z,49.21
2022-07-29T10:38:04.841Z,49.82
2022-07-29T10:41:20.273Z,47.91
2022-07-29T10:43:51.260Z,46.89
2022-07-29T10:46:19.378Z,45.83
2022-07-29T10:49:11.587Z,44.77
2022-07-29T10:52:03.627Z,51.16
2022-07-29T10:54:48.976Z,46.72
2022-07-29T10:57:15.932Z,46.37
2022-07-29T10:59:44.267Z,44.67
2022-07-29T11:02:41.780Z,43.81
2022-07-29T11:05:20.266Z,44.15
2022-07-29T11:08:19.994Z,40.84
2022-07-29T11:11:12.532Z,39.77
2022-07-29T11:13:48.931Z,45.75
2022-07-29T11:16:16.419Z,50.82
2022-07-29T11:19:11.454Z,50.47
2022-07-29T11:21:54.007Z,50.45
2022-07-29T11:24:30.095Z,47.90
2022-07-29T11:27:21.324Z,51.53
2022-07-29T11:30:02.085Z,51.12
2022-07-29T11:32:39.376Z,49.74
2022-07-29T11:35:18.834Z,51.75
2022-07-29T11:37:52.566Z,50.18
2022-07-29T11:40:34.311Z,48.57
2022-07-29T11:43:00.689Z,55.53
2022-07-29T11:45:45.565Z,60.03
2022-07-29T11:48:28.887Z,58.45
2022-07-29T11:51:12.102Z,55.88
2022-07-29T11:53:40.450Z,50.03
2022-07-29T11:56:09.634Z,47.34
2022-07-29T11:58:38.572Z,45.94
2022-07-29T12:01:06.104Z,45.78
2022-07-29T12:03:35.896Z,48.60
2022-07-29T12:06:13.788Z,50.30
2022-07-29T12:08:44.510Z,52.90
2022-07-29T12:11:20.418Z,52.61
2022-07-29T12:13:49.210Z,50.51
2022-07-29T12:16:15.857Z,48.93
2022-07-29T12:18:42.335Z,49.23
2022-07-29T12:21:09.693Z,48.63
2022-07-29T12:23:39.019Z,50.76
2022-07-29T12:26:10.707Z,51.53
2022-07-29T12:28:48.684Z,53.15
2022-07-29T12:31:43.922Z,52.41
2022-07-29T12:34:03.017Z,52.47
2022-07-29T12:36:29.465Z,50.13
2022-07-29T12:38:55.948Z,50.90
2022-07-29T12:41:23.196Z,54.71
2022-07-29T12:43:56.414Z,54.81
2022-07-29T12:46:23.738Z,51.44
2022-07-29T12:48:58.758Z,52.97
2022-07-29T12:51:36.171Z,53.35
2022-07-29T12:54:05.507Z,51.41
2022-07-29T12:56:47.316Z,47.51
2022-07-29T12:59:22.928Z,47.70
2022-07-29T13:01:52.332Z,50.13
2022-07-29T13:04:30.275Z,51.59
2022-07-29T13:07:04.590Z,51.30
2022-07-29T13:09:43.066Z,47.93
2022-07-29T13:12:11.376Z,47.55
2022-07-29T13:14:48.660Z,43.26
2022-07-29T13:17:28.228Z,44.33
2022-07-29T13:20:13.817Z,44.88
2022-07-29T13:22:42.019Z,46.28
2022-07-29T13:25:11.183Z,47.39
2022-07-29T13:27:39.295Z,51.10
2022-07-29T13:30:08.391Z,49.77
2022-07-29T13:32:35.835Z,53.37
2022-07-29T13:35:05.485Z,53.68
2022-07-29T13:37:34.935Z,56.26
2022-07-29T13:40:04.514Z,56.74
2022-07-29T13:42:32.919Z,59.13
2022-07-29T13:45:00.451Z,59.05
2022-07-29T13:47:32.426Z,58.63
2022-07-29T13:49:59.338Z,58.74
2022-07-29T13:52:26.063Z,59.43
2022-07-29T13:54:52.418Z,59.41
2022-07-29T13:57:20.076Z,65.70
2022-07-29T13:59:53.900Z,64.39
2022-07-29T14:02:21.457Z,65.16
2022-07-29T14:04:52.487Z,67.17
2022-07-29T14:07:19.088Z,71.46
2022-07-29T14:09:45.603Z,72.08
2022-07-29T14:12:12.773Z,73.15
2022-07-29T14:14:39.603Z,74.65
2022-07-29T14:17:07.287Z,75.45
2022-07-29T14:19:36.532Z,77.38
2022-07-29T14:22:04.979Z,76.54
2022-07-29T14:24:32.094Z,76.54
2022-07-29T14:26:58.932Z,73.33
2022-07-29T14:29:37.083Z,75.15
2022-07-29T14:32:11.310Z,74.41
2022-07-29T14:34:39.278Z,74.09
2022-07-29T14:37:07.046Z,74.92
2022-07-29T14:39:39.335Z,75.94
2022-07-29T14:42:09.364Z,77.29
2022-07-29T14:44:38.103Z,79.31
2022-07-29T14:47:07.537Z,79.78
2022-07-29T14:49:34.926Z,79.63
2022-07-29T14:52:01.528Z,78.89
2022-07-29T14:54:28.069Z,78.90
2022-07-29T14:56:58.600Z,79.01
2022-07-29T14:59:25.883Z,78.84
2022-07-29T15:01:52.473Z,78.63
2022-07-29T15:04:19.087Z,77.75
2022-07-29T15:06:45.743Z,76.52
2022-07-29T15:09:12.731Z,75.09
2022-07-29T15:11:39.349Z,75.34
2022-07-29T15:14:06.972Z,74.55
2022-07-29T15:16:36.181Z,74.90
2022-07-29T15:19:02.755Z,75.36
2022-07-29T15:21:29.139Z,74.45
2022-07-29T15:23:55.509Z,74.57
2022-07-29T15:26:22.273Z,74.79
2022-07-29T15:28:48.929Z,73.50
2022-07-29T15:31:15.583Z,74.86
2022-07-29T15:33:42.394Z,75.75
2022-07-29T15:36:09.143Z,76.00
2022-07-29T15:38:35.522Z,76.18
2022-07-29T15:41:08.488Z,78.01
2022-07-29T15:43:36.077Z,77.11
2022-07-29T15:46:21.920Z,76.25
2022-07-29T15:48:48.454Z,77.05
2022-07-29T15:51:15.160Z,76.96
2022-07-29T15:53:41.981Z,77.77
2022-07-29T15:56:08.397Z,77.85
2022-07-29T15:58:35.155Z,76.73
2022-07-29T16:01:02.128Z,74.68
2022-07-29T16:03:28.803Z,75.41
2022-07-29T16:05:55.555Z,75.38
2022-07-29T16:08:21.915Z,79.31
2022-07-29T16:10:48.468Z,78.30
2022-07-29T16:13:17.795Z,78.05
2022-07-29T16:15:45.742Z,78.04
2022-07-29T16:18:30.339Z,78.09
2022-07-29T16:20:57.164Z,78.13
2022-07-29T16:23:24.582Z,78.20
2022-07-29T16:25:59.696Z,80.63
2022-07-29T16:28:27.595Z,80.49
2022-07-29T16:30:54.592Z,80.18
2022-07-29T16:33:20.966Z,81.06
2022-07-29T16:35:47.355Z,81.88
2022-07-29T16:38:14.036Z,82.97
2022-07-29T16:40:40.790Z,83.97
2022-07-29T16:43:07.380Z,81.78
2022-07-29T16:45:45.264Z,82.75
2022-07-29T16:48:13.797Z,82.61
2022-07-29T16:50:41.309Z,82.66
2022-07-29T16:53:10.204Z,82.50
2022-07-29T16:55:37.063Z,83.07
2022-07-29T16:58:03.522Z,82.68
2022-07-29T17:00:30.023Z,83.84
2022-07-29T17:02:56.457Z,82.91
2022-07-29T17:05:22.844Z,83.26
2022-07-29T17:07:50.247Z,83.37
2022-07-29T17:10:17.175Z,84.12
2022-07-29T17:12:43.716Z,83.82
2022-07-29T17:15:12.139Z,84.20
2022-07-29T17:17:55.063Z,83.17
2022-07-29T17:20:23.703Z,83.26
2022-07-29T17:22:50.123Z,83.85
2022-07-29T17:25:20.815Z,84.63
2022-07-29T17:27:49.968Z,84.78
2022-07-29T17:30:16.833Z,85.17
2022-07-29T17:32:43.235Z,85.63
2022-07-29T17:35:36.540Z,85.83
2022-07-29T17:38:02.919Z,85.81
2022-07-29T17:40:29.331Z,85.42
2022-07-29T17:42:56.084Z,86.61
2022-07-29T17:45:22.427Z,86.39
2022-07-29T17:47:48.779Z,86.56
2022-07-29T17:50:15.526Z,86.95
2022-07-29T17:52:41.984Z,86.89
2022-07-29T17:55:10.200Z,86.92
2022-07-29T17:57:37.129Z,86.95
2022-07-29T18:00:05.375Z,86.62
2022-07-29T18:02:37.935Z,86.40
2022-07-29T18:05:04.977Z,86.36
2022-07-29T18:07:31.509Z,86.13
2022-07-29T18:10:00.613Z,86.51
2022-07-29T18:12:27.340Z,86.76
2022-07-29T18:14:53.708Z,87.94
2022-07-29T18:17:20.381Z,86.79
2022-07-29T18:19:48.087Z,87.04
2022-07-29T18:22:15.074Z,86.94
2022-07-29T18:24:42.719Z,87.05
2022-07-29T18:27:09.142Z,87.69
2022-07-29T18:29:35.611Z,87.72
2022-07-29T18:32:02.191Z,87.34
2022-07-29T18:34:29.349Z,87.47
2022-07-29T18:36:56.364Z,87.68
2022-07-29T18:39:23.068Z,87.69
2022-07-29T18:41:51.630Z,87.56
2022-07-29T18:44:21.721Z,87.90
2022-07-29T18:46:49.416Z,87.86
2022-07-29T18:49:16.287Z,87.47
2022-07-29T18:51:42.995Z,87.93
2022-07-29T18:54:10.416Z,87.90
2022-07-29T18:56:37.672Z,87.41
2022-07-29T18:59:04.609Z,86.93
2022-07-29T19:01:31.872Z,87.17
2022-07-29T19:03:58.957Z,87.28
2022-07-29T19:06:26.017Z,86.65
2022-07-29T19:08:53.257Z,86.44
2022-07-29T19:11:19.674Z,86.36
2022-07-29T19:13:46.080Z,86.11
2022-07-29T19:16:14.464Z,86.32
2022-07-29T19:18:43.007Z,86.25
2022-07-29T19:21:09.804Z,85.67
2022-07-29T19:24:01.490Z,85.89
2022-07-29T19:26:23.389Z,85.58
2022-07-29T19:28:53.338Z,85.57
2022-07-29T19:31:19.772Z,85.85
2022-07-29T19:33:46.606Z,85.99
2022-07-29T19:36:12.963Z,85.98
2022-07-29T19:38:39.484Z,86.11
2022-07-29T19:41:06.573Z,86.04
2022-07-29T19:43:51.297Z,85.97
2022-07-29T19:46:20.152Z,86.17
2022-07-29T19:48:46.596Z,86.06
2022-07-29T19:51:13.435Z,86.93
2022-07-29T19:53:39.853Z,86.51
2022-07-29T19:56:08.761Z,86.45
2022-07-29T19:58:36.088Z,85.81
2022-07-29T20:01:03.067Z,86.54
2022-07-29T20:03:39.537Z,86.21
2022-07-29T20:06:06.164Z,84.76
2022-07-29T20:08:33.096Z,85.54
2022-07-29T20:10:59.456Z,85.40
2022-07-29T20:13:26.179Z,86.33
2022-07-29T20:15:52.607Z,87.54
2022-07-29T20:18:19.007Z,87.90
2022-07-29T20:20:45.937Z,88.72
2022-07-29T20:23:12.301Z,88.26
2022-07-29T20:25:39.202Z,88.38
2022-07-29T20:28:05.999Z,87.38
2022-07-29T20:30:32.447Z,87.28
2022-07-29T20:32:59.379Z,86.74
2022-07-29T20:35:28.111Z,87.49
2022-07-29T20:37:56.613Z,87.83
2022-07-29T20:40:27.067Z,87.51
2022-07-29T20:42:55.093Z,87.58
2022-07-29T20:45:23.369Z,87.71
2022-07-29T20:47:51.576Z,86.92
2022-07-29T20:50:19.416Z,87.31
2022-07-29T20:52:45.956Z,87.97
2022-07-29T20:55:12.535Z,87.58
2022-07-29T20:57:40.070Z,87.94
2022-07-29T21:00:08.400Z,88.27
2022-07-29T21:02:34.857Z,87.92
2022-07-29T21:05:01.815Z,87.98
2022-07-29T21:07:28.533Z,88.42
2022-07-29T21:09:54.900Z,88.09
2022-07-29T21:12:21.286Z,87.90
2022-07-29T21:14:48.393Z,87.96
2022-07-29T21:17:16.210Z,88.24
2022-07-29T21:19:43.055Z,88.11
2022-07-29T21:22:10.139Z,88.37
2022-07-29T21:24:36.683Z,88.36
2022-07-29T21:27:22.542Z,88.56
2022-07-29T21:29:49.758Z,88.33
2022-07-29T21:32:28.439Z,88.21
2022-07-29T21:34:57.553Z,87.77
2022-07-29T21:37:24.052Z,87.56
2022-07-29T21:39:50.499Z,87.89
2022-07-29T21:42:17.271Z,87.74
2022-07-29T21:44:43.764Z,87.36
2022-07-29T21:47:11.555Z,87.89
2022-07-29T21:49:38.512Z,88.32
2022-07-29T21:52:05.709Z,87.86
2022-07-29T21:54:34.548Z,88.25
2022-07-29T21:57:01.433Z,88.36
2022-07-29T21:59:27.879Z,87.72
2022-07-29T22:01:54.703Z,87.74
2022-07-29T22:04:22.107Z,87.69
2022-07-29T22:06:48.576Z,87.14
2022-07-29T22:09:15.516Z,86.70
2022-07-29T22:11:42.380Z,87.73
2022-07-29T22:14:09.311Z,87.07
2022-07-29T22:16:35.821Z,88.10
2022-07-29T22:19:03.704Z,88.24
2022-07-29T22:21:31.147Z,87.52
2022-07-29T22:23:58.086Z,87.66
2022-07-29T22:26:24.488Z,87.95
2022-07-29T22:28:51.299Z,88.38
2022-07-29T22:31:18.459Z,88.36
2022-07-29T22:33:44.908Z,88.29
2022-07-29T22:36:11.487Z,88.58
2022-07-29T22:38:38.059Z,88.95
2022-07-29T22:41:04.461Z,89.77
2022-07-29T22:43:30.821Z,89.27
2022-07-29T22:45:57.220Z,89.03
2022-07-29T22:48:23.630Z,88.75
2022-07-29T22:50:49.966Z,88.35
2022-07-29T22:53:16.898Z,88.27
2022-07-29T22:55:45.043Z,88.61
2022-07-29T22:58:11.445Z,88.92
2022-07-29T23:00:38.291Z,88.22
2022-07-29T23:03:04.636Z,88.98
2022-07-29T23:05:31.130Z,88.56
2022-07-29T23:07:57.979Z,88.66
2022-07-29T23:10:24.511Z,88.60
2022-07-29T23:12:50.864Z,88.94
2022-07-29T23:15:18.184Z,89.14
2022-07-29T23:17:44.656Z,89.16
2022-07-29T23:20:11.264Z,89.72
2022-07-29T23:22:41.410Z,89.49
2022-07-29T23:25:08.203Z,89.44
2022-07-29T23:27:34.567Z,89.73
2022-07-29T23:30:01.403Z,89.73
2022-07-29T23:32:27.922Z,89.86
2022-07-29T23:34:54.304Z,90.14
2022-07-29T23:37:20.996Z,90.12
2022-07-29T23:39:48.051Z,90.04
2022-07-29T23:42:14.466Z,90.10
2022-07-29T23:44:40.823Z,89.63
2022-07-29T23:47:07.577Z,90.18
2022-07-29T23:49:34.495Z,90.38
2022-07-29T23:52:00.852Z,90.31
2022-07-29T23:54:27.642Z,90.33
2022-07-29T23:56:54.010Z,90.55
2022-07-29T23:59:20.448Z,90.41
